createdAt,value
2022-09-06T00:00:26.560Z,1.83
2022-09-06T00:04:28.029Z,1.60
2022-09-06T00:08:29.513Z,1.60
2022-09-06T00:12:31.411Z,1.73
2022-09-06T00:16:32.868Z,1.67
2022-09-06T00:20:35.036Z,1.52
2022-09-06T00:24:37.239Z,1.50
2022-09-06T00:28:39.528Z,1.48
2022-09-06T00:32:41.240Z,1.52
2022-09-06T00:36:42.671Z,1.50
2022-09-06T00:40:44.193Z,1.13
2022-09-06T00:44:45.824Z,1.17
2022-09-06T00:48:50.158Z,1.35
2022-09-06T00:52:52.653Z,1.13
2022-09-06T00:56:55.230Z,1.10
2022-09-06T01:00:56.953Z,1.20
2022-09-06T01:04:58.694Z,1.25
2022-09-06T01:09:12.527Z,1.25
2022-09-06T01:13:38.585Z,1.10
2022-09-06T01:18:03.000Z,0.98
2022-09-06T01:22:48.516Z,1.05
2022-09-06T01:27:08.195Z,1.65
2022-09-06T01:31:35.551Z,1.33
2022-09-06T01:35:48.103Z,1.60
2022-09-06T01:39:49.594Z,1.00
2022-09-06T01:43:53.355Z,1.25
2022-09-06T01:48:17.001Z,1.08
2022-09-06T01:52:23.265Z,1.35
2022-09-06T01:56:47.695Z,1.33
2022-09-06T02:01:06.143Z,1.13
2022-09-06T02:05:27.554Z,1.02
2022-09-06T02:09:36.128Z,0.82
2022-09-06T02:13:51.238Z,0.95
2022-09-06T02:18:16.720Z,1.20
2022-09-06T02:22:22.833Z,0.90
2022-09-06T02:26:27.553Z,1.10
2022-09-06T02:30:29.107Z,1.00
2022-09-06T02:34:30.788Z,1.30
2022-09-06T02:38:36.980Z,0.80
2022-09-06T02:42:42.051Z,1.00
2022-09-06T02:46:43.446Z,1.08
2022-09-06T02:50:44.864Z,1.10
2022-09-06T02:54:46.350Z,1.08
2022-09-06T02:58:47.739Z,1.10
2022-09-06T03:02:49.207Z,0.82
2022-09-06T03:06:50.652Z,1.00
2022-09-06T03:10:56.130Z,1.10
2022-09-06T03:14:57.828Z,1.05
2022-09-06T03:18:59.236Z,0.93
2022-09-06T03:23:00.667Z,0.80
2022-09-06T03:27:02.084Z,0.93
2022-09-06T03:31:04.104Z,1.23
2022-09-06T03:35:05.937Z,1.30
2022-09-06T03:39:07.403Z,1.20
2022-09-06T03:43:08.796Z,1.40
2022-09-06T03:47:10.317Z,1.48
2022-09-06T03:51:11.764Z,1.15
2022-09-06T03:55:13.167Z,1.40
2022-09-06T03:59:14.638Z,1.30
2022-09-06T04:03:16.202Z,1.10
2022-09-06T04:07:17.608Z,1.30
2022-09-06T04:11:19.068Z,1.15
2022-09-06T04:15:20.526Z,1.10
2022-09-06T04:19:22.098Z,1.45
2022-09-06T04:23:25.053Z,1.05
2022-09-06T04:27:26.449Z,1.33
2022-09-06T04:31:27.951Z,1.00
2022-09-06T04:35:29.448Z,1.10
2022-09-06T04:39:30.923Z,1.60
2022-09-06T04:43:32.961Z,1.17
2022-09-06T04:47:34.456Z,1.25
2022-09-06T04:51:37.290Z,1.20
2022-09-06T04:55:39.018Z,1.50
2022-09-06T04:59:40.431Z,1.20
2022-09-06T05:03:42.423Z,1.40
2022-09-06T05:07:43.888Z,1.50
2022-09-06T05:11:46.231Z,1.00
2022-09-06T05:15:47.683Z,1.33
2022-09-06T05:19:49.159Z,1.20
2022-09-06T05:23:51.936Z,1.20
2022-09-06T05:27:55.802Z,1.30
2022-09-06T05:31:57.525Z,1.30
2022-09-06T05:35:59.082Z,1.40
2022-09-06T05:40:01.770Z,1.70
2022-09-06T05:44:03.761Z,1.33
2022-09-06T05:48:05.240Z,2.05
2022-09-06T05:52:06.665Z,1.20
2022-09-06T05:56:08.896Z,1.20
2022-09-06T06:00:12.228Z,1.08
2022-09-06T06:04:13.700Z,1.42
2022-09-06T06:08:15.119Z,1.55
2022-09-06T06:12:16.554Z,1.27
2022-09-06T06:16:20.379Z,1.90
2022-09-06T06:20:21.830Z,1.40
2022-09-06T06:24:23.343Z,1.10
2022-09-06T06:28:24.810Z,1.20
2022-09-06T06:32:26.432Z,1.27
2022-09-06T06:36:30.688Z,1.40
2022-09-06T06:40:32.127Z,1.15
2022-09-06T06:44:33.566Z,1.80
2022-09-06T06:48:36.395Z,1.30
2022-09-06T06:52:37.781Z,1.55
2022-09-06T06:56:44.772Z,1.50
2022-09-06T07:00:46.443Z,1.58
2022-09-06T07:04:47.917Z,1.13
2022-09-06T07:08:49.832Z,1.40
2022-09-06T07:12:51.820Z,2.47
2022-09-06T07:16:58.178Z,1.17
2022-09-06T07:25:21.626Z,1.58
2022-09-06T07:29:23.200Z,1.65
2022-09-06T07:33:24.941Z,1.65
2022-09-06T07:37:26.328Z,1.67
2022-09-06T07:41:27.775Z,1.48
2022-09-06T07:45:29.189Z,1.63
2022-09-06T07:49:34.700Z,1.67
2022-09-06T07:53:37.950Z,1.88
2022-09-06T07:57:39.629Z,1.92
2022-09-06T08:01:41.494Z,2.08
2022-09-06T08:10:04.712Z,1.40
2022-09-06T08:14:08.089Z,1.98
2022-09-06T08:18:09.513Z,2.00
2022-09-06T08:22:10.926Z,1.92
2022-09-06T08:26:12.821Z,2.03
2022-09-06T08:30:14.344Z,2.10
2022-09-06T08:34:16.012Z,1.95
2022-09-06T08:38:17.434Z,1.88
2022-09-06T08:42:18.940Z,2.22
2022-09-06T08:46:23.627Z,1.92
2022-09-06T08:50:28.729Z,2.03
2022-09-06T08:54:52.018Z,2.20
2022-09-06T08:59:06.478Z,1.80
2022-09-06T09:03:17.006Z,2.00
2022-09-06T09:07:21.312Z,1.90
2022-09-06T09:11:25.515Z,2.20
2022-09-06T09:15:28.775Z,2.53
2022-09-06T09:19:33.453Z,1.85
2022-09-06T09:23:35.480Z,2.55
2022-09-06T09:27:37.444Z,2.08
2022-09-06T09:31:49.797Z,3.08
2022-09-06T09:35:53.354Z,2.42
2022-09-06T09:39:57.859Z,2.90
2022-09-06T09:44:04.843Z,2.67
2022-09-06T09:48:20.527Z,3.20
2022-09-06T09:52:25.027Z,3.10
2022-09-06T09:56:32.714Z,2.70
2022-09-06T10:00:34.090Z,3.00
2022-09-06T10:04:44.568Z,3.08
2022-09-06T10:08:46.735Z,3.00
2022-09-06T10:12:48.337Z,2.65
2022-09-06T10:16:51.657Z,2.75
2022-09-06T10:21:00.795Z,2.70
2022-09-06T10:25:14.539Z,2.97
2022-09-06T10:29:29.656Z,2.70
2022-09-06T10:33:48.142Z,2.88
2022-09-06T10:38:15.365Z,3.65
2022-09-06T10:42:28.442Z,2.90
2022-09-06T10:46:34.772Z,3.17
2022-09-06T10:51:11.489Z,2.90
2022-09-06T10:55:17.937Z,2.65
2022-09-06T11:04:01.964Z,2.35
2022-09-06T11:12:43.963Z,2.88
2022-09-06T11:16:59.011Z,3.30
2022-09-06T11:21:24.768Z,2.67
2022-09-06T11:25:50.552Z,2.88
2022-09-06T11:29:56.446Z,3.00
2022-09-06T11:34:06.291Z,3.05
2022-09-06T11:38:24.648Z,3.40
2022-09-06T11:42:44.922Z,4.65
2022-09-06T11:46:46.426Z,4.18
2022-09-06T11:51:11.148Z,2.63
2022-09-06T11:55:16.100Z,2.65
2022-09-06T11:59:19.410Z,3.63
2022-09-06T12:04:05.565Z,3.08
2022-09-06T12:08:11.055Z,3.97
2022-09-06T12:12:52.389Z,3.10
2022-09-06T12:17:00.326Z,2.85
2022-09-06T12:21:03.502Z,2.97
2022-09-06T12:25:20.454Z,2.97
2022-09-06T12:29:27.203Z,3.10
2022-09-06T12:33:36.217Z,3.03
2022-09-06T12:37:50.457Z,3.08
2022-09-06T12:41:59.702Z,3.13
2022-09-06T12:46:01.581Z,3.08
2022-09-06T12:50:17.860Z,2.78
2022-09-06T12:54:26.664Z,2.60
2022-09-06T12:58:28.932Z,2.75
2022-09-06T13:02:41.253Z,2.80
2022-09-06T13:06:46.690Z,3.45
2022-09-06T13:10:48.296Z,3.05
2022-09-06T13:14:56.599Z,2.72
2022-09-06T13:19:29.723Z,2.72
2022-09-06T13:23:45.095Z,3.40
2022-09-06T13:27:51.640Z,2.70
2022-09-06T13:31:55.531Z,2.92
2022-09-06T13:36:06.293Z,2.85
2022-09-06T13:41:09.284Z,3.10
2022-09-06T13:45:25.957Z,3.38
2022-09-06T13:49:28.435Z,2.83
2022-09-06T13:53:30.342Z,2.97
2022-09-06T13:57:31.793Z,2.83
2022-09-06T14:01:34.123Z,2.97
2022-09-06T14:05:38.958Z,3.10
2022-09-06T14:09:40.400Z,3.22
2022-09-06T14:13:41.901Z,3.15
2022-09-06T14:17:43.431Z,2.92
2022-09-06T14:21:44.869Z,2.90
2022-09-06T14:25:46.777Z,3.00
2022-09-06T14:29:49.256Z,2.83
2022-09-06T14:33:50.731Z,3.28
2022-09-06T14:37:52.327Z,3.03
2022-09-06T14:41:53.997Z,2.80
2022-09-06T14:45:58.921Z,3.00
2022-09-06T14:50:00.742Z,3.30
2022-09-06T14:54:07.554Z,2.88
2022-09-06T14:58:09.239Z,3.05
2022-09-06T15:02:10.882Z,2.80
2022-09-06T15:06:12.922Z,3.50
2022-09-06T15:10:14.498Z,3.25
2022-09-06T15:14:22.565Z,3.10
2022-09-06T15:18:24.110Z,3.13
2022-09-06T15:22:25.682Z,3.35
2022-09-06T15:26:29.319Z,3.33
2022-09-06T15:30:30.859Z,3.35
2022-09-06T15:34:32.406Z,2.90
2022-09-06T15:38:41.257Z,2.60
2022-09-06T15:42:42.858Z,3.30
2022-09-06T15:46:58.210Z,3.50
2022-09-06T15:51:02.605Z,3.42
2022-09-06T15:55:22.729Z,3.10
2022-09-06T15:59:24.601Z,3.00
2022-09-06T16:03:26.086Z,3.05
2022-09-06T16:07:27.759Z,3.33
2022-09-06T16:11:30.178Z,3.08
2022-09-06T16:15:31.911Z,3.42
2022-09-06T16:19:33.436Z,3.65
2022-09-06T16:23:36.372Z,3.83
2022-09-06T16:27:38.011Z,4.10
2022-09-06T16:31:40.734Z,3.13
2022-09-06T16:35:43.162Z,3.00
2022-09-06T16:39:44.820Z,3.70
2022-09-06T16:43:47.859Z,3.30
2022-09-06T16:47:49.353Z,3.88
2022-09-06T16:51:51.057Z,3.03
2022-09-06T16:55:52.722Z,3.53
2022-09-06T16:59:54.465Z,4.88
2022-09-06T17:03:56.297Z,3.30
2022-09-06T17:07:57.753Z,3.15
2022-09-06T17:11:59.485Z,2.78
2022-09-06T17:16:22.278Z,3.20
2022-09-06T17:20:23.962Z,3.22
2022-09-06T17:24:26.873Z,3.47
2022-09-06T17:28:28.639Z,3.50
2022-09-06T17:32:31.753Z,3.72
2022-09-06T17:36:34.176Z,3.83
2022-09-06T17:40:35.895Z,4.20
2022-09-06T17:44:37.636Z,3.13
2022-09-06T17:48:39.092Z,2.95
2022-09-06T17:52:40.587Z,3.05
2022-09-06T17:56:42.117Z,3.53
2022-09-06T18:00:43.592Z,2.53
2022-09-06T18:04:45.158Z,2.72
2022-09-06T18:08:47.909Z,3.20
2022-09-06T18:12:50.266Z,2.90
2022-09-06T18:16:52.231Z,3.55
2022-09-06T18:20:53.762Z,2.92
2022-09-06T18:24:58.333Z,2.85
2022-09-06T18:29:00.203Z,3.08
2022-09-06T18:33:01.700Z,2.78
2022-09-06T18:37:03.194Z,3.13
2022-09-06T18:41:07.744Z,3.17
2022-09-06T18:45:09.290Z,3.50
2022-09-06T18:49:13.456Z,3.00
2022-09-06T18:53:18.122Z,2.90
2022-09-06T18:57:19.586Z,3.22
2022-09-06T19:01:21.831Z,2.95
2022-09-06T19:05:23.576Z,3.10
2022-09-06T19:09:25.067Z,2.88
2022-09-06T19:13:26.592Z,2.92
2022-09-06T19:17:28.062Z,2.50
2022-09-06T19:21:29.726Z,2.40
2022-09-06T19:25:31.179Z,2.28
2022-09-06T19:29:32.681Z,2.97
2022-09-06T19:33:36.335Z,2.90
2022-09-06T19:37:38.879Z,2.40
2022-09-06T19:41:46.580Z,2.85
2022-09-06T19:45:48.029Z,2.45
2022-09-06T19:49:49.510Z,2.60
2022-09-06T19:53:57.634Z,2.88
2022-09-06T19:58:00.512Z,2.75
2022-09-06T20:02:02.777Z,2.80
2022-09-06T20:06:07.449Z,3.00
2022-09-06T20:10:09.410Z,3.20
2022-09-06T20:14:11.470Z,2.60
2022-09-06T20:18:13.237Z,2.50
2022-09-06T20:22:14.729Z,3.13
2022-09-06T20:26:17.970Z,3.15
2022-09-06T20:30:19.773Z,3.22
2022-09-06T20:34:21.322Z,3.10
2022-09-06T20:38:23.056Z,3.00
2022-09-06T20:42:24.570Z,2.90
2022-09-06T20:46:30.934Z,3.35
2022-09-06T20:50:32.477Z,3.13
2022-09-06T20:54:34.029Z,2.90
2022-09-06T20:58:37.817Z,2.70
2022-09-06T21:02:39.340Z,3.17
2022-09-06T21:06:41.132Z,2.92
2022-09-06T21:10:42.998Z,2.75
2022-09-06T21:14:44.485Z,2.70
2022-09-06T21:18:50.634Z,2.67
2022-09-06T21:22:52.172Z,2.90
2022-09-06T21:26:53.627Z,2.60
2022-09-06T21:31:10.082Z,3.05
2022-09-06T21:35:11.592Z,4.10
2022-09-06T21:39:13.228Z,3.25
2022-09-06T21:43:14.685Z,2.63
2022-09-06T21:47:16.152Z,2.90
2022-09-06T21:51:20.390Z,2.88
2022-09-06T21:55:21.870Z,2.63
2022-09-06T21:59:23.359Z,3.08
2022-09-06T22:03:26.154Z,2.85
2022-09-06T22:07:27.594Z,2.10
2022-09-06T22:11:31.888Z,2.55
2022-09-06T22:15:37.632Z,2.35
2022-09-06T22:19:39.189Z,2.17
2022-09-06T22:23:40.776Z,1.88
2022-09-06T22:27:42.279Z,2.30
2022-09-06T22:31:43.931Z,2.30
2022-09-06T22:35:45.444Z,2.45
2022-09-06T22:39:48.050Z,2.22
2022-09-06T22:43:49.600Z,1.95
2022-09-06T22:47:51.083Z,2.25
2022-09-06T22:51:53.635Z,2.20
2022-09-06T22:55:55.875Z,1.90
2022-09-06T22:59:57.421Z,2.35
2022-09-06T23:03:59.401Z,2.05
2022-09-06T23:08:02.562Z,1.77
2022-09-06T23:12:05.127Z,2.58
2022-09-06T23:16:08.978Z,2.40
2022-09-06T23:20:10.545Z,2.22
2022-09-06T23:24:12.148Z,2.25
2022-09-06T23:28:13.648Z,2.60
2022-09-06T23:32:15.129Z,2.17
2022-09-06T23:36:16.607Z,2.33
2022-09-06T23:40:18.970Z,2.10
2022-09-06T23:44:20.814Z,2.25
2022-09-06T23:48:22.336Z,2.20
2022-09-06T23:52:23.864Z,2.10
2022-09-06T23:56:25.342Z,2.40
